Time;durP1;ratioP1;P1;durP2;ratioP2;P2;SDS_P1;SDS_P2;PMS_P1;PMS_P2;Temp;Humidity;BMP_temperature;BMP_pressure;BME280_temperature;BME280_humidity;BME280_pressure;Samples;Min_cycle;Max_cycle;Signal;HPM_P1;HPM_P2
2021/11/09 00:00:51;;;;;;;5.95;4.75;;;;;;;;;;5036276;28;20206;-82
2021/11/09 00:03:19;;;;;;;5.03;2.97;;;;;;;;;;5035970;28;20599;-82
2021/11/09 00:05:52;;;;;;;3.58;2.60;;;;;;;;;;5035625;28;20190;-82
2021/11/09 00:08:23;;;;;;;2.55;2.28;;;;;;;;;;5036257;28;20218;-82
2021/11/09 00:10:51;;;;;;;2.88;2.58;;;;;;;;;;5035698;28;20262;-82
2021/11/09 00:13:21;;;;;;;2.72;2.28;;;;;;;;;;5036047;28;20233;-81
2021/11/09 00:15:49;;;;;;;3.28;2.75;;;;;;;;;;5036005;28;20189;-82
2021/11/09 00:18:16;;;;;;;2.33;2.13;;;;;;;;;;5035486;28;20187;-82
2021/11/09 00:20:44;;;;;;;2.40;2.20;;;;;;;;;;5035330;28;20233;-82
2021/11/09 00:23:15;;;;;;;2.60;2.40;;;;;;;;;;5035468;28;20233;-82
2021/11/09 00:25:42;;;;;;;2.58;2.38;;;;;;;;;;5035793;28;20255;-82
2021/11/09 00:28:12;;;;;;;3.55;2.47;;;;;;;;;;5035746;28;20182;-82
2021/11/09 00:30:42;;;;;;;4.40;2.70;;;;;;;;;;5035318;28;20190;-82
2021/11/09 00:33:10;;;;;;;2.60;2.40;;;;;;;;;;5035749;28;20222;-82
2021/11/09 00:35:38;;;;;;;2.72;2.53;;;;;;;;;;5035048;28;20222;-82
2021/11/09 00:38:11;;;;;;;4.20;3.80;;;;;;;;;;5035623;28;20182;-82
2021/11/09 00:40:42;;;;;;;4.63;3.58;;;;;;;;;;5034847;28;20203;-82
2021/11/09 00:43:12;;;;;;;6.30;4.05;;;;;;;;;;5034787;28;20651;-82
2021/11/09 00:45:41;;;;;;;4.57;3.95;;;;;;;;;;5034768;28;20195;-82
2021/11/09 00:48:09;;;;;;;6.43;4.38;;;;;;;;;;5035266;28;20284;-82
2021/11/09 00:50:39;;;;;;;5.38;4.53;;;;;;;;;;5035152;28;20186;-81
2021/11/09 00:53:07;;;;;;;5.82;3.78;;;;;;;;;;5034809;28;20222;-81
2021/11/09 00:55:35;;;;;;;5.55;4.30;;;;;;;;;;5035139;28;20186;-81
2021/11/09 00:58:03;;;;;;;5.72;2.85;;;;;;;;;;5034996;28;20213;-81
2021/11/09 01:00:33;;;;;;;3.03;2.70;;;;;;;;;;5034575;28;20760;-81
2021/11/09 01:03:05;;;;;;;2.90;2.13;;;;;;;;;;5034619;28;20587;-82
2021/11/09 01:05:34;;;;;;;2.50;2.30;;;;;;;;;;5035121;28;20256;-81
2021/11/09 01:08:06;;;;;;;2.53;2.33;;;;;;;;;;5034423;28;20225;-82
2021/11/09 01:10:36;;;;;;;4.78;3.95;;;;;;;;;;5034955;28;20198;-81
2021/11/09 01:13:05;;;;;;;2.90;2.20;;;;;;;;;;5034774;28;20210;-82
2021/11/09 01:15:33;;;;;;;2.42;2.03;;;;;;;;;;5034840;28;20695;-81
2021/11/09 01:18:04;;;;;;;1.80;1.70;;;;;;;;;;5034859;28;20190;-81
2021/11/09 01:20:34;;;;;;;3.03;1.92;;;;;;;;;;5033389;28;20198;-81
2021/11/09 01:23:03;;;;;;;1.73;1.63;;;;;;;;;;5033903;28;20242;-81
2021/11/09 01:25:32;;;;;;;2.45;2.05;;;;;;;;;;5033895;28;20191;-81
2021/11/09 01:28:00;;;;;;;1.80;1.67;;;;;;;;;;5034514;28;20190;-81
2021/11/09 01:30:27;;;;;;;3.05;2.85;;;;;;;;;;5034548;28;20209;-82
2021/11/09 01:32:55;;;;;;;2.30;1.90;;;;;;;;;;5034427;28;20222;-81
2021/11/09 01:35:25;;;;;;;2.25;1.85;;;;;;;;;;5034910;28;20187;-81
2021/11/09 01:37:52;;;;;;;3.30;2.83;;;;;;;;;;5034611;28;20178;-81
2021/11/09 01:40:23;;;;;;;2.17;1.98;;;;;;;;;;5034635;28;20649;-81
2021/11/09 01:42:51;;;;;;;2.33;2.13;;;;;;;;;;5034936;28;20309;-81
2021/11/09 01:45:20;;;;;;;3.10;2.45;;;;;;;;;;5033958;28;20202;-81
2021/11/09 01:47:49;;;;;;;2.92;2.70;;;;;;;;;;5033990;28;20187;-81
2021/11/09 01:50:22;;;;;;;2.50;2.30;;;;;;;;;;5034702;28;20251;-81
2021/11/09 01:52:51;;;;;;;2.50;2.30;;;;;;;;;;5034526;28;20226;-82
2021/11/09 01:55:23;;;;;;;5.53;3.55;;;;;;;;;;5034184;28;20214;-81
2021/11/09 01:57:52;;;;;;;2.78;2.50;;;;;;;;;;5034277;28;20194;-81
2021/11/09 02:00:30;;;;;;;7.70;3.63;;;;;;;;;;5034439;28;20629;-81
2021/11/09 02:02:58;;;;;;;2.20;2.00;;;;;;;;;;5033789;28;20218;-81
2021/11/09 02:05:28;;;;;;;2.20;1.98;;;;;;;;;;5034133;28;20182;-82
2021/11/09 02:08:01;;;;;;;1.95;1.83;;;;;;;;;;5034020;28;20680;-82
2021/11/09 02:10:33;;;;;;;2.90;1.90;;;;;;;;;;5034166;28;20182;-81
2021/11/09 02:13:01;;;;;;;2.33;2.10;;;;;;;;;;5033512;28;20228;-81
2021/11/09 02:15:30;;;;;;;1.80;1.70;;;;;;;;;;5034341;28;20205;-81
2021/11/09 02:17:59;;;;;;;1.73;1.63;;;;;;;;;;5034532;28;20190;-82
2021/11/09 02:20:28;;;;;;;1.60;1.50;;;;;;;;;;5033812;28;20309;-81
2021/11/09 02:22:58;;;;;;;2.50;2.30;;;;;;;;;;5084442;22;20282;-87
2021/11/09 02:25:31;;;;;;;2.17;1.98;;;;;;;;;;5077281;28;20177;-87
2021/11/09 02:27:59;;;;;;;2.65;1.73;;;;;;;;;;5077370;28;21101;-86
2021/11/09 02:30:29;;;;;;;6.55;3.92;;;;;;;;;;5077410;28;20250;-87
2021/11/09 02:32:58;;;;;;;2.47;2.25;;;;;;;;;;5076116;28;20311;-87
2021/11/09 02:35:26;;;;;;;5.43;2.53;;;;;;;;;;5076719;28;20292;-87
2021/11/09 02:37:57;;;;;;;4.25;3.25;;;;;;;;;;5076954;28;20209;-88
2021/11/09 02:40:25;;;;;;;3.47;2.97;;;;;;;;;;5077477;28;20193;-87
2021/11/09 02:42:56;;;;;;;4.88;2.55;;;;;;;;;;5077748;28;20221;-87
2021/11/09 02:45:37;;;;;;;2.15;1.83;;;;;;;;;;5077720;28;20283;-87
2021/11/09 02:48:08;;;;;;;1.77;1.48;;;;;;;;;;5077670;28;20193;-86
2021/11/09 02:50:37;;;;;;;2.97;1.90;;;;;;;;;;5076435;28;20249;-87
2021/11/09 02:53:09;;;;;;;1.50;1.40;;;;;;;;;;5076330;28;20232;-87
2021/11/09 02:55:39;;;;;;;1.60;1.50;;;;;;;;;;5077532;28;20670;-87
2021/11/09 02:58:16;;;;;;;1.48;1.38;;;;;;;;;;5077315;28;20192;-87
2021/11/09 03:00:55;;;;;;;3.50;1.60;;;;;;;;;;5077294;28;20185;-87
2021/11/09 03:03:29;;;;;;;4.53;1.70;;;;;;;;;;5077948;28;20581;-87
2021/11/09 03:06:12;;;;;;;1.90;1.70;;;;;;;;;;5077880;28;20578;-87
2021/11/09 03:08:44;;;;;;;6.60;2.72;;;;;;;;;;5079532;28;20209;-87
2021/11/09 03:11:12;;;;;;;8.73;3.72;;;;;;;;;;5080379;28;20202;-87
2021/11/09 03:13:39;;;;;;;2.20;2.00;;;;;;;;;;5080389;28;20585;-86
2021/11/09 03:16:10;;;;;;;1.50;1.40;;;;;;;;;;5079893;28;20201;-86
2021/11/09 03:18:43;;;;;;;1.80;1.70;;;;;;;;;;5080856;28;20631;-87
2021/11/09 03:40:30;;;;;;;2.83;2.10;;;;;;;;;;5040818;28;20190;-85
2021/11/09 03:45:44;;;;;;;2.30;2.08;;;;;;;;;;5039428;28;20205;-86
2021/11/09 03:48:14;;;;;;;4.10;2.75;;;;;;;;;;5039348;28;20313;-86
2021/11/09 03:50:44;;;;;;;4.00;3.47;;;;;;;;;;5040133;28;20415;-85
2021/11/09 03:53:16;;;;;;;3.53;2.90;;;;;;;;;;5040167;28;20217;-86
2021/11/09 03:56:08;;;;;;;2.90;2.67;;;;;;;;;;5040177;28;20241;-86
2021/11/09 03:58:38;;;;;;;4.03;2.70;;;;;;;;;;5040933;28;20695;-87
2021/11/09 04:01:09;;;;;;;3.00;2.70;;;;;;;;;;5040674;28;20229;-86
2021/11/09 04:06:32;;;;;;;2.25;2.05;;;;;;;;;;5038847;28;20229;-85
2021/11/09 04:09:05;;;;;;;4.00;2.88;;;;;;;;;;5039734;28;20195;-87
2021/11/09 04:11:43;;;;;;;3.78;2.83;;;;;;;;;;5039526;28;20212;-85
2021/11/09 04:14:17;;;;;;;3.00;2.17;;;;;;;;;;5039593;28;20722;-86
2021/11/09 04:16:52;;;;;;;2.58;2.25;;;;;;;;;;5039171;28;20186;-86
2021/11/09 04:19:28;;;;;;;3.33;2.72;;;;;;;;;;5037550;28;20603;-86
2021/11/09 04:22:30;;;;;;;2.83;2.60;;;;;;;;;;5048392;28;20727;-87
2021/11/09 04:27:48;;;;;;;5.10;3.08;;;;;;;;;;5076470;28;20200;-86
2021/11/09 04:52:54;;;;;;;2.15;1.95;;;;;;;;;;5073802;28;20223;-87
2021/11/09 05:01:28;;;;;;;3.38;3.08;;;;;;;;;;4982416;28;20279;-87
2021/11/09 05:09:31;;;;;;;3.28;2.80;;;;;;;;;;5075410;28;20200;-87
2021/11/09 05:12:01;;;;;;;4.30;2.78;;;;;;;;;;5075647;28;20221;-87
2021/11/09 05:14:30;;;;;;;3.95;3.15;;;;;;;;;;5076340;28;20201;-87
2021/11/09 05:17:00;;;;;;;2.15;1.80;;;;;;;;;;5076301;28;20181;-87
2021/11/09 05:19:29;;;;;;;2.50;2.30;;;;;;;;;;5075038;28;20193;-88
2021/11/09 05:21:57;;;;;;;2.13;2.03;;;;;;;;;;5074714;28;20706;-87
2021/11/09 05:24:25;;;;;;;2.28;2.05;;;;;;;;;;5075474;28;20200;-87
2021/11/09 05:26:54;;;;;;;3.20;2.90;;;;;;;;;;5075256;28;20197;-87
2021/11/09 05:29:21;;;;;;;3.80;3.40;;;;;;;;;;5075046;28;20173;-87
2021/11/09 05:31:56;;;;;;;2.53;2.33;;;;;;;;;;5075758;28;20213;-88
2021/11/09 05:34:29;;;;;;;2.15;1.95;;;;;;;;;;5075271;28;20609;-88
2021/11/09 05:36:58;;;;;;;3.38;2.63;;;;;;;;;;5073886;28;20207;-88
2021/11/09 05:39:33;;;;;;;3.72;3.35;;;;;;;;;;5073852;28;20688;-88
2021/11/09 05:42:02;;;;;;;4.35;3.08;;;;;;;;;;5074224;28;20256;-88
2021/11/09 05:44:30;;;;;;;5.75;3.50;;;;;;;;;;5074916;28;20188;-88
2021/11/09 05:46:57;;;;;;;4.43;3.28;;;;;;;;;;5075783;28;20186;-87
2021/11/09 05:49:33;;;;;;;4.53;3.63;;;;;;;;;;5076216;28;20205;-87
2021/11/09 05:52:02;;;;;;;3.78;3.20;;;;;;;;;;5076720;28;20741;-87
2021/11/09 05:54:31;;;;;;;5.15;3.25;;;;;;;;;;5076507;28;20193;-87
2021/11/09 05:57:00;;;;;;;2.17;2.08;;;;;;;;;;5077342;28;20807;-88
2021/11/09 05:59:32;;;;;;;4.30;3.10;;;;;;;;;;5076193;28;20252;-87
2021/11/09 06:02:01;;;;;;;3.38;3.08;;;;;;;;;;5076120;28;20224;-87
2021/11/09 06:04:29;;;;;;;2.60;2.28;;;;;;;;;;5076311;28;20216;-88
2021/11/09 06:06:58;;;;;;;3.65;2.78;;;;;;;;;;5076701;28;20189;-86
2021/11/09 06:09:26;;;;;;;2.53;2.33;;;;;;;;;;5075981;28;20207;-87
2021/11/09 06:11:56;;;;;;;2.10;1.90;;;;;;;;;;5075618;28;20705;-87
2021/11/09 06:14:24;;;;;;;6.03;2.28;;;;;;;;;;5075867;28;20824;-87
2021/11/09 06:16:52;;;;;;;4.00;2.83;;;;;;;;;;5076305;28;20205;-87
2021/11/09 06:19:19;;;;;;;2.97;2.60;;;;;;;;;;5076242;28;20215;-87
2021/11/09 06:21:46;;;;;;;5.50;3.42;;;;;;;;;;5075777;28;20604;-87
2021/11/09 06:24:17;;;;;;;3.25;2.95;;;;;;;;;;5076947;28;20232;-87
2021/11/09 06:26:46;;;;;;;4.63;2.53;;;;;;;;;;5077327;28;20207;-88
2021/11/09 06:29:15;;;;;;;3.83;3.30;;;;;;;;;;5074642;28;20207;-86
2021/11/09 06:31:45;;;;;;;3.30;3.00;;;;;;;;;;5074073;28;20217;-87
2021/11/09 06:34:12;;;;;;;2.97;2.67;;;;;;;;;;5075188;28;20692;-87
2021/11/09 06:36:40;;;;;;;4.38;2.63;;;;;;;;;;5074771;28;20790;-87
2021/11/09 06:39:07;;;;;;;3.47;2.38;;;;;;;;;;5069983;28;20193;-89
2021/11/09 06:41:37;;;;;;;2.70;2.15;;;;;;;;;;5070961;28;20204;-88
2021/11/09 06:44:06;;;;;;;3.50;3.15;;;;;;;;;;5074763;28;20219;-88
2021/11/09 06:46:34;;;;;;;3.85;3.38;;;;;;;;;;5073804;28;20188;-88
2021/11/09 06:49:03;;;;;;;5.50;3.40;;;;;;;;;;5073800;28;20654;-87
2021/11/09 06:51:31;;;;;;;5.93;3.90;;;;;;;;;;5074096;28;20192;-87
2021/11/09 06:54:00;;;;;;;4.03;3.63;;;;;;;;;;5073887;28;20190;-87
2021/11/09 06:56:28;;;;;;;6.20;3.63;;;;;;;;;;5073720;28;20232;-88
2021/11/09 06:58:58;;;;;;;4.60;3.95;;;;;;;;;;5073427;28;20209;-86
2021/11/09 07:01:27;;;;;;;6.13;4.03;;;;;;;;;;5073721;28;20192;-87
2021/11/09 07:03:55;;;;;;;5.95;5.03;;;;;;;;;;5073252;28;20213;-89
2021/11/09 07:06:24;;;;;;;6.70;4.50;;;;;;;;;;5071981;28;20207;-87
2021/11/09 07:08:53;;;;;;;4.90;3.95;;;;;;;;;;5073980;28;20207;-87
2021/11/09 07:11:21;;;;;;;5.45;3.70;;;;;;;;;;5073773;28;20837;-87
2021/11/09 07:13:49;;;;;;;3.45;3.15;;;;;;;;;;5073806;28;20211;-87
2021/11/09 07:16:19;;;;;;;3.25;3.00;;;;;;;;;;5075952;28;20189;-87
2021/11/09 07:18:49;;;;;;;4.00;3.10;;;;;;;;;;5075840;28;20236;-89
2021/11/09 07:21:16;;;;;;;3.58;3.13;;;;;;;;;;5075946;28;20204;-88
2021/11/09 07:23:51;;;;;;;6.20;3.83;;;;;;;;;;5075596;28;20324;-89
2021/11/09 07:26:21;;;;;;;5.93;3.33;;;;;;;;;;5075469;28;20204;-88
2021/11/09 07:28:50;;;;;;;5.53;3.60;;;;;;;;;;5076283;28;20220;-88
2021/11/09 07:31:32;;;;;;;3.60;3.05;;;;;;;;;;5076303;28;20185;-90
2021/11/09 07:33:59;;;;;;;2.95;2.75;;;;;;;;;;5075178;28;20680;-89
2021/11/09 07:36:37;;;;;;;2.40;2.20;;;;;;;;;;5075377;28;20815;-90
2021/11/09 07:39:07;;;;;;;2.22;1.88;;;;;;;;;;5074923;28;20604;-88
2021/11/09 07:41:35;;;;;;;2.65;2.03;;;;;;;;;;5075784;28;20204;-89
2021/11/09 07:44:04;;;;;;;1.98;1.88;;;;;;;;;;5075263;28;20205;-89
2021/11/09 07:46:39;;;;;;;3.63;2.58;;;;;;;;;;5074457;28;20202;-91
2021/11/09 07:49:08;;;;;;;2.50;2.25;;;;;;;;;;5074777;28;20202;-89
2021/11/09 07:51:36;;;;;;;4.75;3.58;;;;;;;;;;5055167;28;20269;-90
2021/11/09 07:54:06;;;;;;;3.95;3.35;;;;;;;;;;5054998;28;20220;-90
2021/11/09 07:56:40;;;;;;;3.80;2.85;;;;;;;;;;5074681;28;20204;-89
2021/11/09 07:59:25;;;;;;;4.00;3.30;;;;;;;;;;5059676;28;20543;-88
2021/11/09 08:02:03;;;;;;;3.75;3.03;;;;;;;;;;5061613;28;20296;-89
2021/11/09 08:04:39;;;;;;;4.80;2.75;;;;;;;;;;5073764;28;20212;-90
2021/11/09 08:07:11;;;;;;;3.00;2.65;;;;;;;;;;5074237;28;20269;-91
2021/11/09 08:09:40;;;;;;;11.25;4.03;;;;;;;;;;5074587;28;20599;-89
2021/11/09 08:12:09;;;;;;;7.47;3.90;;;;;;;;;;5073821;28;20244;-90
2021/11/09 08:14:40;;;;;;;4.25;3.85;;;;;;;;;;5074069;28;20195;-89
2021/11/09 08:17:10;;;;;;;5.53;3.85;;;;;;;;;;5074297;28;20185;-89
2021/11/09 08:19:38;;;;;;;4.38;3.83;;;;;;;;;;5074034;28;20197;-89
2021/11/09 08:22:05;;;;;;;5.25;4.13;;;;;;;;;;5073793;28;20228;-86
2021/11/09 08:25:03;;;;;;;4.20;2.97;;;;;;;;;;5074304;28;20682;-86
2021/11/09 08:28:01;;;;;;;5.68;3.67;;;;;;;;;;5074417;28;20555;-86
2021/11/09 08:30:36;;;;;;;3.97;3.38;;;;;;;;;;5074835;28;20196;-86
2021/11/09 08:33:51;;;;;;;3.45;3.03;;;;;;;;;;5074670;28;20220;-86
2021/11/09 08:36:22;;;;;;;9.48;4.43;;;;;;;;;;5074131;28;20201;-86
2021/11/09 08:39:02;;;;;;;11.45;5.32;;;;;;;;;;5073438;28;20205;-86
2021/11/09 08:41:38;;;;;;;8.30;5.00;;;;;;;;;;5073952;28;20181;-86
2021/11/09 08:44:37;;;;;;;13.68;5.50;;;;;;;;;;5073895;28;20583;-86
2021/11/09 08:48:11;;;;;;;8.93;4.70;;;;;;;;;;5073764;28;20197;-86
2021/11/09 08:50:53;;;;;;;18.05;6.25;;;;;;;;;;5053924;28;20619;-87
2021/11/09 08:53:30;;;;;;;11.43;5.57;;;;;;;;;;5053647;28;20304;-86
2021/11/09 08:56:26;;;;;;;8.65;5.35;;;;;;;;;;5068354;28;20190;-86
2021/11/09 09:04:51;;;;;;;10.43;6.38;;;;;;;;;;5072437;28;20224;-86
2021/11/09 09:07:22;;;;;;;5.78;4.78;;;;;;;;;;5073308;28;20234;-86
2021/11/09 09:09:57;;;;;;;11.00;4.90;;;;;;;;;;5073443;28;20556;-86
2021/11/09 09:12:45;;;;;;;7.10;4.90;;;;;;;;;;5073336;28;20223;-87
2021/11/09 09:18:54;;;;;;;6.57;3.75;;;;;;;;;;5073196;28;20253;-86
2021/11/09 09:21:39;;;;;;;6.18;3.47;;;;;;;;;;5073159;28;20204;-86
2021/11/09 09:24:27;;;;;;;6.80;3.95;;;;;;;;;;5033108;28;20676;-88
2021/11/09 09:27:17;;;;;;;9.68;4.28;;;;;;;;;;5033243;28;20201;-86
2021/11/09 09:55:12;;;;;;;9.75;5.40;;;;;;;;;;4991101;28;20601;-86
2021/11/09 09:57:59;;;;;;;8.63;5.10;;;;;;;;;;4991160;28;20298;-87
2021/11/09 10:00:56;;;;;;;11.38;4.88;;;;;;;;;;5018558;28;20240;-87
2021/11/09 10:03:43;;;;;;;6.45;4.45;;;;;;;;;;5032699;28;20276;-88
2021/11/09 10:06:43;;;;;;;4.68;3.03;;;;;;;;;;5032612;28;20625;-87
2021/11/09 10:09:35;;;;;;;6.60;3.53;;;;;;;;;;5032548;28;20586;-87
2021/11/09 10:12:36;;;;;;;3.88;2.83;;;;;;;;;;5032490;28;20240;-87
2021/11/09 10:15:15;;;;;;;6.00;3.50;;;;;;;;;;5032665;28;20281;-88
2021/11/09 10:17:48;;;;;;;8.68;3.05;;;;;;;;;;5036230;28;20182;-86
2021/11/09 10:20:19;;;;;;;6.18;3.92;;;;;;;;;;5036918;28;20179;-87
2021/11/09 10:22:51;;;;;;;5.78;3.47;;;;;;;;;;5048627;28;20225;-88
2021/11/09 10:25:35;;;;;;;6.32;3.13;;;;;;;;;;5076225;28;20308;-88
2021/11/09 10:28:34;;;;;;;4.80;3.25;;;;;;;;;;5076225;28;20192;-87
2021/11/09 10:31:08;;;;;;;5.10;2.42;;;;;;;;;;5076644;28;20200;-88
2021/11/09 10:33:50;;;;;;;2.55;2.33;;;;;;;;;;5075726;28;20215;-88
2021/11/09 10:37:32;;;;;;;3.22;2.90;;;;;;;;;;5076281;28;20216;-88
2021/11/09 10:40:32;;;;;;;6.32;2.92;;;;;;;;;;5076337;28;20207;-88
2021/11/09 10:43:23;;;;;;;4.22;2.40;;;;;;;;;;5076050;28;20216;-87
2021/11/09 10:46:30;;;;;;;2.97;2.70;;;;;;;;;;5076365;28;20671;-88
2021/11/09 10:49:04;;;;;;;3.85;2.47;;;;;;;;;;5076471;28;20209;-86
2021/11/09 10:51:54;;;;;;;3.45;2.60;;;;;;;;;;5076418;28;20291;-87
2021/11/09 10:54:49;;;;;;;4.88;3.63;;;;;;;;;;5076098;28;20255;-87
2021/11/09 10:57:58;;;;;;;4.55;2.67;;;;;;;;;;5075702;28;20639;-87
2021/11/09 11:04:11;;;;;;;6.30;3.22;;;;;;;;;;5076016;28;20266;-87
2021/11/09 11:07:03;;;;;;;4.57;3.00;;;;;;;;;;5075881;28;20224;-89
2021/11/09 11:10:38;;;;;;;4.60;3.20;;;;;;;;;;5075782;28;20228;-89
2021/11/09 11:13:25;;;;;;;3.97;3.38;;;;;;;;;;4994050;28;20223;-87
2021/11/09 11:16:10;;;;;;;4.65;2.58;;;;;;;;;;5075613;28;20528;-90
2021/11/09 11:18:41;;;;;;;3.70;2.92;;;;;;;;;;5075765;28;20193;-86
2021/11/09 11:21:13;;;;;;;4.97;2.72;;;;;;;;;;5075667;28;20235;-88
2021/11/09 11:23:43;;;;;;;5.18;3.90;;;;;;;;;;5074752;28;20304;-88
2021/11/09 11:26:18;;;;;;;5.60;3.30;;;;;;;;;;5075405;28;20213;-87
2021/11/09 11:28:50;;;;;;;3.47;2.38;;;;;;;;;;5075705;28;20249;-88
2021/11/09 11:31:21;;;;;;;4.15;2.90;;;;;;;;;;5076593;28;20221;-88
2021/11/09 11:33:49;;;;;;;6.63;2.33;;;;;;;;;;5076220;28;20211;-88
2021/11/09 11:36:19;;;;;;;8.07;2.65;;;;;;;;;;5076356;28;20286;-87
2021/11/09 11:38:53;;;;;;;3.00;2.55;;;;;;;;;;5076582;28;20205;-88
2021/11/09 11:41:25;;;;;;;2.85;1.92;;;;;;;;;;5077316;28;20265;-88
2021/11/09 11:43:59;;;;;;;3.25;2.30;;;;;;;;;;5076849;28;20197;-88
2021/11/09 11:46:50;;;;;;;2.97;2.35;;;;;;;;;;5075917;28;20639;-88
2021/11/09 11:49:28;;;;;;;4.25;3.03;;;;;;;;;;5076429;28;20193;-87
2021/11/09 11:52:12;;;;;;;2.33;2.10;;;;;;;;;;5078545;28;20618;-87
2021/11/09 11:54:54;;;;;;;4.32;2.17;;;;;;;;;;5069816;28;20213;-87
2021/11/09 11:57:37;;;;;;;5.00;3.30;;;;;;;;;;5076334;28;20182;-88
2021/11/09 12:00:38;;;;;;;3.78;2.17;;;;;;;;;;5077775;28;20201;-88
2021/11/09 12:03:33;;;;;;;2.70;2.13;;;;;;;;;;5072236;28;20268;-88
2021/11/09 12:06:01;;;;;;;3.00;2.42;;;;;;;;;;5076036;28;20697;-87
2021/11/09 12:08:42;;;;;;;3.72;2.13;;;;;;;;;;5075970;28;20193;-88
2021/11/09 12:11:40;;;;;;;4.63;2.63;;;;;;;;;;5076320;28;20200;-88
2021/11/09 12:14:16;;;;;;;4.40;2.75;;;;;;;;;;5076632;28;20308;-87
2021/11/09 12:16:57;;;;;;;2.38;2.17;;;;;;;;;;5075907;28;20611;-87
2021/11/09 12:19:50;;;;;;;3.17;2.00;;;;;;;;;;5076312;28;20209;-88
2021/11/09 12:22:20;;;;;;;1.98;1.88;;;;;;;;;;5051462;28;20221;-87
2021/11/09 12:25:02;;;;;;;2.08;1.70;;;;;;;;;;5076051;28;20672;-88
2021/11/09 12:28:07;;;;;;;1.92;1.75;;;;;;;;;;5077581;28;20217;-89
2021/11/09 12:30:56;;;;;;;1.70;1.58;;;;;;;;;;5075346;28;20291;-87
2021/11/09 12:34:01;;;;;;;2.28;1.58;;;;;;;;;;5074990;28;20221;-87
2021/11/09 12:36:30;;;;;;;3.05;1.23;;;;;;;;;;5075035;28;20181;-87
2021/11/09 12:39:24;;;;;;;2.40;1.50;;;;;;;;;;5075242;28;20288;-87
2021/11/09 12:41:59;;;;;;;2.00;1.30;;;;;;;;;;5074894;28;20248;-87
2021/11/09 12:44:42;;;;;;;1.42;1.30;;;;;;;;;;5075644;28;20214;-88
2021/11/09 12:47:16;;;;;;;2.88;1.65;;;;;;;;;;5069882;28;20667;-88
2021/11/09 12:49:55;;;;;;;3.30;1.88;;;;;;;;;;5054910;28;20182;-88
2021/11/09 12:52:56;;;;;;;4.05;2.95;;;;;;;;;;5055233;28;20224;-87
2021/11/09 12:55:26;;;;;;;2.25;2.05;;;;;;;;;;5054335;28;20689;-87
2021/11/09 12:58:22;;;;;;;1.90;1.80;;;;;;;;;;5055033;28;20248;-86
2021/11/09 13:01:24;;;;;;;3.30;1.77;;;;;;;;;;5054276;28;20217;-86
2021/11/09 13:04:48;;;;;;;2.20;1.35;;;;;;;;;;5053827;28;20288;-86
2021/11/09 13:07:21;;;;;;;2.63;1.98;;;;;;;;;;5053573;28;20224;-84
2021/11/09 13:09:53;;;;;;;2.65;1.80;;;;;;;;;;5053845;28;20240;-85
2021/11/09 13:12:24;;;;;;;2.63;2.30;;;;;;;;;;5053285;28;20334;-87
2021/11/09 13:14:58;;;;;;;1.30;1.10;;;;;;;;;;5053118;28;20206;-85
2021/11/09 13:17:33;;;;;;;1.50;1.20;;;;;;;;;;5053012;28;20186;-85
2021/11/09 13:20:03;;;;;;;2.15;1.20;;;;;;;;;;5054438;28;20186;-85
2021/11/09 13:22:31;;;;;;;1.48;1.10;;;;;;;;;;5064811;28;20213;-86
2021/11/09 13:25:19;;;;;;;0.60;0.60;;;;;;;;;;5073994;28;20659;-87
2021/11/09 13:27:49;;;;;;;2.08;1.00;;;;;;;;;;5074448;28;20221;-86
2021/11/09 13:30:27;;;;;;;1.92;0.88;;;;;;;;;;5074405;28;20182;-87
2021/11/09 13:32:58;;;;;;;1.33;0.82;;;;;;;;;;5074190;28;20710;-87
2021/11/09 13:35:28;;;;;;;0.85;0.85;;;;;;;;;;5074371;28;20272;-87
2021/11/09 13:38:09;;;;;;;1.70;1.60;;;;;;;;;;5075888;28;20185;-86
2021/11/09 13:40:40;;;;;;;1.13;1.02;;;;;;;;;;5076799;28;20666;-87
2021/11/09 13:43:13;;;;;;;1.98;1.25;;;;;;;;;;5076190;28;20729;-87
2021/11/09 13:46:01;;;;;;;0.80;0.80;;;;;;;;;;5075613;28;20189;-87
2021/11/09 13:48:40;;;;;;;0.85;0.85;;;;;;;;;;5075093;28;20586;-87
2021/11/09 13:51:13;;;;;;;1.52;1.02;;;;;;;;;;5072909;28;20582;-86
2021/11/09 13:53:45;;;;;;;0.80;0.80;;;;;;;;;;5074334;28;20349;-87
2021/11/09 13:56:17;;;;;;;0.98;0.93;;;;;;;;;;5074473;28;20204;-87
2021/11/09 13:58:59;;;;;;;0.90;0.90;;;;;;;;;;5073750;28;20269;-88
2021/11/09 14:01:42;;;;;;;3.00;1.10;;;;;;;;;;5073364;28;20265;-86
2021/11/09 14:04:35;;;;;;;0.70;0.70;;;;;;;;;;5060181;28;20712;-86
2021/11/09 14:13:01;;;;;;;1.08;1.08;;;;;;;;;;5072036;28;20592;-87
2021/11/09 14:15:46;;;;;;;0.80;0.80;;;;;;;;;;5072336;28;20289;-85
2021/11/09 14:18:17;;;;;;;0.60;0.60;;;;;;;;;;5072419;28;20193;-86
2021/11/09 14:20:54;;;;;;;0.77;0.77;;;;;;;;;;5072402;28;20732;-87
2021/11/09 14:23:30;;;;;;;0.90;0.82;;;;;;;;;;5055836;28;20324;-86
2021/11/09 14:25:59;;;;;;;0.88;0.80;;;;;;;;;;5066573;28;20200;-86
2021/11/09 14:28:36;;;;;;;0.70;0.70;;;;;;;;;;5074381;28;20563;-86
2021/11/09 14:31:16;;;;;;;1.30;1.25;;;;;;;;;;5075559;28;20219;-86
2021/11/09 14:33:48;;;;;;;1.50;1.08;;;;;;;;;;5072456;28;20714;-86
2021/11/09 14:36:33;;;;;;;0.90;0.70;;;;;;;;;;5072453;28;20225;-85
2021/11/09 14:39:16;;;;;;;0.57;0.57;;;;;;;;;;5072021;28;20671;-87
2021/11/09 14:42:07;;;;;;;0.70;0.70;;;;;;;;;;5071802;28;20227;-87
2021/11/09 14:45:07;;;;;;;0.60;0.60;;;;;;;;;;5072012;28;20235;-86
2021/11/09 14:47:42;;;;;;;0.70;0.70;;;;;;;;;;5071768;28;20217;-86
2021/11/09 14:50:25;;;;;;;0.70;0.70;;;;;;;;;;5071690;28;20203;-85
2021/11/09 14:53:09;;;;;;;0.75;0.75;;;;;;;;;;5071965;28;20310;-87
2021/11/09 14:55:47;;;;;;;0.57;0.57;;;;;;;;;;5071947;28;20186;-87
2021/11/09 14:58:40;;;;;;;0.70;0.70;;;;;;;;;;5071544;28;20284;-87
2021/11/09 15:01:28;;;;;;;0.95;0.70;;;;;;;;;;5071992;28;20243;-86
2021/11/09 15:04:10;;;;;;;0.77;0.77;;;;;;;;;;5074046;28;20251;-86
2021/11/09 15:06:48;;;;;;;0.60;0.60;;;;;;;;;;5075522;28;20189;-86
2021/11/09 15:12:08;;;;;;;0.63;0.63;;;;;;;;;;5039356;28;20251;-83
2021/11/09 15:28:28;;;;;;;1.38;0.63;;;;;;;;;;5028325;28;20226;-84
2021/11/09 15:31:00;;;;;;;1.55;0.70;;;;;;;;;;5036349;28;20198;-84
2021/11/09 15:33:30;;;;;;;2.35;1.10;;;;;;;;;;5036935;28;20226;-85
2021/11/09 15:38:56;;;;;;;0.93;0.90;;;;;;;;;;4993031;28;20219;-84
2021/11/09 15:41:24;;;;;;;1.00;1.00;;;;;;;;;;5037404;28;20623;-84
2021/11/09 15:43:53;;;;;;;0.80;0.80;;;;;;;;;;5036192;28;20211;-86
2021/11/09 15:46:20;;;;;;;0.82;0.80;;;;;;;;;;5036912;28;20233;-85
2021/11/09 15:48:48;;;;;;;0.80;0.80;;;;;;;;;;5037005;28;20297;-85
2021/11/09 15:51:20;;;;;;;0.95;0.80;;;;;;;;;;5037184;28;20236;-85
2021/11/09 15:53:48;;;;;;;1.20;1.10;;;;;;;;;;5036312;28;20320;-85
2021/11/09 15:56:17;;;;;;;0.90;0.90;;;;;;;;;;5037671;28;20190;-85
2021/11/09 15:58:44;;;;;;;1.75;1.27;;;;;;;;;;5036625;28;20223;-84
2021/11/09 16:01:13;;;;;;;1.30;0.90;;;;;;;;;;5035849;28;20266;-83
2021/11/09 16:03:40;;;;;;;1.00;1.00;;;;;;;;;;5035484;28;20759;-84
2021/11/09 16:06:08;;;;;;;1.05;1.05;;;;;;;;;;5034239;28;20184;-83
2021/11/09 16:08:38;;;;;;;0.98;0.90;;;;;;;;;;5034084;28;20241;-84
2021/11/09 16:11:08;;;;;;;1.35;1.15;;;;;;;;;;5033914;28;20257;-83
2021/11/09 16:13:39;;;;;;;2.35;1.00;;;;;;;;;;5034026;28;20233;-83
2021/11/09 16:16:07;;;;;;;1.77;1.55;;;;;;;;;;5037706;28;20250;-84
2021/11/09 16:18:35;;;;;;;1.95;1.20;;;;;;;;;;5034589;28;20215;-84
2021/11/09 16:21:03;;;;;;;1.65;1.55;;;;;;;;;;5034187;28;20191;-84
2021/11/09 16:23:30;;;;;;;2.38;2.15;;;;;;;;;;5034135;28;20191;-84
2021/11/09 16:25:58;;;;;;;1.55;1.15;;;;;;;;;;5034304;28;20205;-84
2021/11/09 16:28:25;;;;;;;2.40;1.35;;;;;;;;;;5034069;28;20222;-84
2021/11/09 16:30:54;;;;;;;1.33;1.23;;;;;;;;;;5034620;28;20213;-85
2021/11/09 16:33:25;;;;;;;1.00;0.90;;;;;;;;;;5033691;28;20720;-85
2021/11/09 16:35:56;;;;;;;0.93;0.93;;;;;;;;;;5033962;28;20566;-85
2021/11/09 16:38:26;;;;;;;1.23;1.10;;;;;;;;;;5033315;28;21050;-84
2021/11/09 16:40:55;;;;;;;1.10;1.00;;;;;;;;;;5034033;28;20242;-85
2021/11/09 16:43:24;;;;;;;1.15;1.10;;;;;;;;;;5033614;28;20244;-85
2021/11/09 16:46:08;;;;;;;1.00;0.90;;;;;;;;;;5034416;28;20277;-85
2021/11/09 16:48:39;;;;;;;1.40;1.30;;;;;;;;;;5032706;28;20253;-85
2021/11/09 16:51:12;;;;;;;1.10;1.10;;;;;;;;;;5033806;28;20214;-85
2021/11/09 16:53:41;;;;;;;1.55;1.45;;;;;;;;;;5033550;28;20202;-83
2021/11/09 16:56:28;;;;;;;1.00;1.00;;;;;;;;;;5033224;28;20824;-85
2021/11/09 16:59:24;;;;;;;1.10;1.10;;;;;;;;;;5032798;28;20726;-85
2021/11/09 18:16:58;;;;;;;1.60;1.38;;;;;;;;;;5031192;28;20240;-85
2021/11/09 18:22:14;;;;;;;1.40;1.30;;;;;;;;;;5031528;28;20197;-85
2021/11/09 18:24:45;;;;;;;1.35;1.00;;;;;;;;;;5031690;28;20190;-85
2021/11/09 18:27:13;;;;;;;1.50;1.10;;;;;;;;;;5031627;28;20521;-85
2021/11/09 18:29:42;;;;;;;1.65;1.40;;;;;;;;;;5031034;28;20234;-85
2021/11/09 18:32:11;;;;;;;2.83;1.20;;;;;;;;;;5030947;28;20205;-84
2021/11/09 18:34:43;;;;;;;1.77;1.30;;;;;;;;;;5031134;28;20281;-84
2021/11/09 18:37:11;;;;;;;1.40;1.30;;;;;;;;;;5032218;28;20175;-84
2021/11/09 18:39:38;;;;;;;1.23;1.10;;;;;;;;;;5034246;28;20727;-84
2021/11/09 18:42:07;;;;;;;1.13;1.02;;;;;;;;;;5035278;28;20585;-84
2021/11/09 18:44:36;;;;;;;1.67;1.58;;;;;;;;;;5034985;28;20186;-84
2021/11/09 18:47:05;;;;;;;1.38;1.10;;;;;;;;;;5034878;28;20210;-84
2021/11/09 18:49:34;;;;;;;2.50;1.85;;;;;;;;;;5034721;28;20230;-84
2021/11/09 18:52:02;;;;;;;1.27;1.20;;;;;;;;;;5035476;28;20194;-84
2021/11/09 18:54:29;;;;;;;1.00;1.00;;;;;;;;;;5035433;28;20199;-84